Oskaloosa, Kansas
Current Conditions -  °F | °C
As of 2:52 PM on Friday 31 Oct 2014 (Local Time) from KLWC Reporting Station
Clear Clear  
Wind Chill: 41°   Ceiling: Unl
Heat Index: 47°   Visibility: 10mi
Dew Point: 18°   Wind: 13mph
Humidity: 32%   Direction: 360°N
Pressure: 30.47"   Gusts: NA
Location:  39.22°N, 95.31°W
Report Text: KLWC 311952Z AUTO 36011KT 10SM CLR 08/M08 A3047 RMK AO2 SLP322 T00831078
Loading
Personal Weather Stations






























Interactive Weather Map
Tropical Storm Tracking
New forecast layout! Learn more

10-Day Weather Forecast

Advertisements
Track Severe Weather on mobile